sensor_id;sensor_type;location;lat;lon;timestamp;temperature;humidity
48589;DHT22;34369;51.174;6.738;2023-03-21T00:00:12;9.60;59.40
48589;DHT22;34369;51.174;6.738;2023-03-21T00:02:45;9.60;59.40
48589;DHT22;34369;51.174;6.738;2023-03-21T00:05:18;9.60;59.50
48589;DHT22;34369;51.174;6.738;2023-03-21T00:07:50;9.60;59.50
48589;DHT22;34369;51.174;6.738;2023-03-21T00:10:23;9.60;59.50
48589;DHT22;34369;51.174;6.738;2023-03-21T00:12:55;9.60;59.50
48589;DHT22;34369;51.174;6.738;2023-03-21T00:15:28;9.60;59.50
48589;DHT22;34369;51.174;6.738;2023-03-21T00:18:00;9.60;59.60
48589;DHT22;34369;51.174;6.738;2023-03-21T00:20:34;9.60;59.60
48589;DHT22;34369;51.174;6.738;2023-03-21T00:23:07;9.60;59.60
48589;DHT22;34369;51.174;6.738;2023-03-21T00:25:39;9.60;59.70
48589;DHT22;34369;51.174;6.738;2023-03-21T00:28:11;9.60;59.70
48589;DHT22;34369;51.174;6.738;2023-03-21T00:30:42;9.60;59.60
48589;DHT22;34369;51.174;6.738;2023-03-21T00:33:15;9.60;59.70
48589;DHT22;34369;51.174;6.738;2023-03-21T00:35:52;9.60;59.80
48589;DHT22;34369;51.174;6.738;2023-03-21T00:38:25;9.60;59.80
48589;DHT22;34369;51.174;6.738;2023-03-21T00:40:57;9.60;59.80
48589;DHT22;34369;51.174;6.738;2023-03-21T00:43:29;9.60;59.80
48589;DHT22;34369;51.174;6.738;2023-03-21T00:46:02;9.60;59.90
48589;DHT22;34369;51.174;6.738;2023-03-21T00:48:35;9.60;59.90
48589;DHT22;34369;51.174;6.738;2023-03-21T00:51:13;9.60;60.00
48589;DHT22;34369;51.174;6.738;2023-03-21T00:53:52;9.60;60.00
48589;DHT22;34369;51.174;6.738;2023-03-21T00:56:25;9.60;60.00
48589;DHT22;34369;51.174;6.738;2023-03-21T00:58:57;9.70;60.00
48589;DHT22;34369;51.174;6.738;2023-03-21T01:01:29;9.60;60.10
48589;DHT22;34369;51.174;6.738;2023-03-21T01:04:02;9.70;60.20
48589;DHT22;34369;51.174;6.738;2023-03-21T01:06:37;9.70;60.20
48589;DHT22;34369;51.174;6.738;2023-03-21T01:09:12;9.60;60.20
48589;DHT22;34369;51.174;6.738;2023-03-21T01:11:46;9.60;60.20
48589;DHT22;34369;51.174;6.738;2023-03-21T01:14:21;9.70;60.20
48589;DHT22;34369;51.174;6.738;2023-03-21T01:16:53;9.60;60.20
48589;DHT22;34369;51.174;6.738;2023-03-21T01:19:25;9.70;60.30
48589;DHT22;34369;51.174;6.738;2023-03-21T01:21:59;9.70;60.30
48589;DHT22;34369;51.174;6.738;2023-03-21T01:24:31;9.70;60.30
48589;DHT22;34369;51.174;6.738;2023-03-21T01:27:03;9.70;60.30
48589;DHT22;34369;51.174;6.738;2023-03-21T01:29:35;9.70;60.30
48589;DHT22;34369;51.174;6.738;2023-03-21T01:32:07;9.70;60.20
48589;DHT22;34369;51.174;6.738;2023-03-21T01:34:39;9.70;60.20
48589;DHT22;34369;51.174;6.738;2023-03-21T01:37:12;9.70;60.30
48589;DHT22;34369;51.174;6.738;2023-03-21T01:39:47;9.80;60.30
48589;DHT22;34369;51.174;6.738;2023-03-21T01:42:19;9.80;60.30
48589;DHT22;34369;51.174;6.738;2023-03-21T01:44:53;9.80;60.40
48589;DHT22;34369;51.174;6.738;2023-03-21T01:47:26;9.80;60.40
48589;DHT22;34369;51.174;6.738;2023-03-21T01:50:00;9.80;60.40
48589;DHT22;34369;51.174;6.738;2023-03-21T01:52:36;9.80;60.50
48589;DHT22;34369;51.174;6.738;2023-03-21T01:55:12;9.80;60.50
48589;DHT22;34369;51.174;6.738;2023-03-21T01:57:48;9.90;60.60
48589;DHT22;34369;51.174;6.738;2023-03-21T02:00:25;9.90;60.50
48589;DHT22;34369;51.174;6.738;2023-03-21T02:02:59;9.90;60.50
48589;DHT22;34369;51.174;6.738;2023-03-21T02:05:39;10.00;60.70
48589;DHT22;34369;51.174;6.738;2023-03-21T02:08:15;10.00;60.70
48589;DHT22;34369;51.174;6.738;2023-03-21T02:10:48;10.00;60.60
48589;DHT22;34369;51.174;6.738;2023-03-21T02:13:21;10.00;60.60
48589;DHT22;34369;51.174;6.738;2023-03-21T02:15:58;10.00;60.60
48589;DHT22;34369;51.174;6.738;2023-03-21T02:18:37;10.00;60.70
48589;DHT22;34369;51.174;6.738;2023-03-21T02:21:44;10.00;60.70
48589;DHT22;34369;51.174;6.738;2023-03-21T02:24:52;10.00;60.70
48589;DHT22;34369;51.174;6.738;2023-03-21T02:27:41;10.00;60.70
48589;DHT22;34369;51.174;6.738;2023-03-21T02:30:37;10.10;60.50
48589;DHT22;34369;51.174;6.738;2023-03-21T02:33:46;10.10;60.70
48589;DHT22;34369;51.174;6.738;2023-03-21T02:36:51;10.10;60.70
48589;DHT22;34369;51.174;6.738;2023-03-21T02:39:52;10.10;60.70
48589;DHT22;34369;51.174;6.738;2023-03-21T02:42:30;10.10;60.70
48589;DHT22;34369;51.174;6.738;2023-03-21T02:45:09;10.10;60.70
48589;DHT22;34369;51.174;6.738;2023-03-21T02:47:48;10.10;60.70
48589;DHT22;34369;51.174;6.738;2023-03-21T02:50:22;10.00;60.80
48589;DHT22;34369;51.174;6.738;2023-03-21T02:53:00;10.00;60.80
48589;DHT22;34369;51.174;6.738;2023-03-21T02:55:34;10.10;60.60
48589;DHT22;34369;51.174;6.738;2023-03-21T02:58:09;10.00;60.70
48589;DHT22;34369;51.174;6.738;2023-03-21T03:00:43;10.00;60.70
48589;DHT22;34369;51.174;6.738;2023-03-21T03:03:15;10.00;60.70
48589;DHT22;34369;51.174;6.738;2023-03-21T03:05:49;10.00;60.70
48589;DHT22;34369;51.174;6.738;2023-03-21T03:08:33;10.00;60.70
48589;DHT22;34369;51.174;6.738;2023-03-21T03:11:21;10.00;60.80
48589;DHT22;34369;51.174;6.738;2023-03-21T03:14:22;10.00;60.80
48589;DHT22;34369;51.174;6.738;2023-03-21T03:17:20;10.00;60.90
48589;DHT22;34369;51.174;6.738;2023-03-21T03:20:11;9.90;60.90
48589;DHT22;34369;51.174;6.738;2023-03-21T03:22:53;9.80;60.90
48589;DHT22;34369;51.174;6.738;2023-03-21T03:25:34;9.80;60.80
48589;DHT22;34369;51.174;6.738;2023-03-21T03:28:08;9.80;60.90
48589;DHT22;34369;51.174;6.738;2023-03-21T03:30:42;9.70;60.80
48589;DHT22;34369;51.174;6.738;2023-03-21T03:33:16;9.70;60.90
48589;DHT22;34369;51.174;6.738;2023-03-21T03:35:54;9.70;61.00
48589;DHT22;34369;51.174;6.738;2023-03-21T03:38:28;9.70;61.00
48589;DHT22;34369;51.174;6.738;2023-03-21T03:41:05;9.60;61.00
48589;DHT22;34369;51.174;6.738;2023-03-21T03:43:43;9.60;61.20
48589;DHT22;34369;51.174;6.738;2023-03-21T03:46:22;9.60;61.20
48589;DHT22;34369;51.174;6.738;2023-03-21T03:49:01;9.60;61.20
48589;DHT22;34369;51.174;6.738;2023-03-21T03:51:42;9.50;61.20
48589;DHT22;34369;51.174;6.738;2023-03-21T03:54:23;9.50;61.40
48589;DHT22;34369;51.174;6.738;2023-03-21T03:57:01;9.50;61.30
48589;DHT22;34369;51.174;6.738;2023-03-21T03:59:34;9.50;61.30
48589;DHT22;34369;51.174;6.738;2023-03-21T04:02:06;9.50;61.30
48589;DHT22;34369;51.174;6.738;2023-03-21T04:04:39;9.50;61.40
48589;DHT22;34369;51.174;6.738;2023-03-21T04:07:11;9.50;61.40
48589;DHT22;34369;51.174;6.738;2023-03-21T04:09:43;9.50;61.40
48589;DHT22;34369;51.174;6.738;2023-03-21T04:12:17;9.50;61.50
48589;DHT22;34369;51.174;6.738;2023-03-21T04:14:49;9.50;61.50
48589;DHT22;34369;51.174;6.738;2023-03-21T04:17:21;9.50;61.50
48589;DHT22;34369;51.174;6.738;2023-03-21T04:19:53;9.50;61.60
48589;DHT22;34369;51.174;6.738;2023-03-21T04:22:25;9.50;61.70
48589;DHT22;34369;51.174;6.738;2023-03-21T04:24:57;9.40;61.70
48589;DHT22;34369;51.174;6.738;2023-03-21T04:27:32;9.50;61.70
48589;DHT22;34369;51.174;6.738;2023-03-21T04:30:05;9.50;61.70
48589;DHT22;34369;51.174;6.738;2023-03-21T04:32:40;9.50;61.70
48589;DHT22;34369;51.174;6.738;2023-03-21T04:35:12;9.50;61.50
48589;DHT22;34369;51.174;6.738;2023-03-21T04:37:45;9.50;61.60
48589;DHT22;34369;51.174;6.738;2023-03-21T04:40:17;9.50;61.60
48589;DHT22;34369;51.174;6.738;2023-03-21T04:42:50;9.50;61.70
48589;DHT22;34369;51.174;6.738;2023-03-21T04:45:23;9.50;61.60
48589;DHT22;34369;51.174;6.738;2023-03-21T04:47:54;9.50;61.60
48589;DHT22;34369;51.174;6.738;2023-03-21T04:50:27;9.50;61.60
48589;DHT22;34369;51.174;6.738;2023-03-21T04:52:59;9.50;61.70
48589;DHT22;34369;51.174;6.738;2023-03-21T04:55:31;9.50;61.60
48589;DHT22;34369;51.174;6.738;2023-03-21T04:58:05;9.50;61.60
48589;DHT22;34369;51.174;6.738;2023-03-21T05:00:37;9.50;61.60
48589;DHT22;34369;51.174;6.738;2023-03-21T05:03:09;9.50;61.70
48589;DHT22;34369;51.174;6.738;2023-03-21T05:05:49;9.50;61.60
48589;DHT22;34369;51.174;6.738;2023-03-21T05:08:21;9.50;61.60
48589;DHT22;34369;51.174;6.738;2023-03-21T05:10:53;9.50;61.60
48589;DHT22;34369;51.174;6.738;2023-03-21T05:13:27;9.50;61.60
48589;DHT22;34369;51.174;6.738;2023-03-21T05:15:59;9.50;61.60
48589;DHT22;34369;51.174;6.738;2023-03-21T05:18:31;9.60;61.50
48589;DHT22;34369;51.174;6.738;2023-03-21T05:21:05;9.50;61.50
48589;DHT22;34369;51.174;6.738;2023-03-21T05:23:40;9.60;61.50
48589;DHT22;34369;51.174;6.738;2023-03-21T05:26:12;9.60;61.50
48589;DHT22;34369;51.174;6.738;2023-03-21T05:28:46;9.60;61.70
48589;DHT22;34369;51.174;6.738;2023-03-21T05:31:18;9.60;61.90
48589;DHT22;34369;51.174;6.738;2023-03-21T05:33:51;9.60;62.00
48589;DHT22;34369;51.174;6.738;2023-03-21T05:36:23;9.50;62.20
48589;DHT22;34369;51.174;6.738;2023-03-21T05:38:55;9.50;62.30
48589;DHT22;34369;51.174;6.738;2023-03-21T05:41:27;9.50;62.50
48589;DHT22;34369;51.174;6.738;2023-03-21T05:44:01;9.50;62.60
48589;DHT22;34369;51.174;6.738;2023-03-21T05:46:33;9.50;62.70
48589;DHT22;34369;51.174;6.738;2023-03-21T05:49:05;9.50;62.80
48589;DHT22;34369;51.174;6.738;2023-03-21T05:51:38;9.50;63.00
48589;DHT22;34369;51.174;6.738;2023-03-21T05:54:10;9.40;63.00
48589;DHT22;34369;51.174;6.738;2023-03-21T05:56:46;9.40;63.20
48589;DHT22;34369;51.174;6.738;2023-03-21T05:59:19;9.40;63.30
48589;DHT22;34369;51.174;6.738;2023-03-21T06:01:51;9.40;63.40
48589;DHT22;34369;51.174;6.738;2023-03-21T06:04:24;9.40;63.50
48589;DHT22;34369;51.174;6.738;2023-03-21T06:06:58;9.40;63.70
48589;DHT22;34369;51.174;6.738;2023-03-21T06:09:30;9.40;63.70
48589;DHT22;34369;51.174;6.738;2023-03-21T06:12:03;9.40;63.70
48589;DHT22;34369;51.174;6.738;2023-03-21T06:14:37;9.40;63.90
48589;DHT22;34369;51.174;6.738;2023-03-21T06:17:09;9.40;63.90
48589;DHT22;34369;51.174;6.738;2023-03-21T06:19:41;9.40;64.00
48589;DHT22;34369;51.174;6.738;2023-03-21T06:22:13;9.40;64.00
48589;DHT22;34369;51.174;6.738;2023-03-21T06:24:46;9.40;64.10
48589;DHT22;34369;51.174;6.738;2023-03-21T06:27:18;9.40;64.10
48589;DHT22;34369;51.174;6.738;2023-03-21T06:29:52;9.40;64.10
48589;DHT22;34369;51.174;6.738;2023-03-21T06:32:25;9.40;64.20
48589;DHT22;34369;51.174;6.738;2023-03-21T06:34:57;9.40;64.30
48589;DHT22;34369;51.174;6.738;2023-03-21T06:37:30;9.40;64.30
48589;DHT22;34369;51.174;6.738;2023-03-21T06:40:02;9.40;64.30
48589;DHT22;34369;51.174;6.738;2023-03-21T06:42:38;9.40;64.30
48589;DHT22;34369;51.174;6.738;2023-03-21T06:45:12;9.40;64.40
48589;DHT22;34369;51.174;6.738;2023-03-21T06:47:45;9.40;64.60
48589;DHT22;34369;51.174;6.738;2023-03-21T06:50:17;9.40;64.50
48589;DHT22;34369;51.174;6.738;2023-03-21T06:52:50;9.40;64.60
48589;DHT22;34369;51.174;6.738;2023-03-21T06:55:22;9.40;64.50
48589;DHT22;34369;51.174;6.738;2023-03-21T06:57:56;9.40;64.50
48589;DHT22;34369;51.174;6.738;2023-03-21T07:00:30;9.50;64.40
48589;DHT22;34369;51.174;6.738;2023-03-21T07:03:03;9.40;64.40
48589;DHT22;34369;51.174;6.738;2023-03-21T07:05:35;9.50;64.50
48589;DHT22;34369;51.174;6.738;2023-03-21T07:08:09;9.50;64.50
48589;DHT22;34369;51.174;6.738;2023-03-21T07:10:44;9.50;64.60
48589;DHT22;34369;51.174;6.738;2023-03-21T07:13:16;9.60;64.60
48589;DHT22;34369;51.174;6.738;2023-03-21T07:15:51;9.60;64.50
48589;DHT22;34369;51.174;6.738;2023-03-21T07:18:23;9.60;64.60
48589;DHT22;34369;51.174;6.738;2023-03-21T07:20:56;9.60;64.70
48589;DHT22;34369;51.174;6.738;2023-03-21T07:23:29;9.70;64.80
48589;DHT22;34369;51.174;6.738;2023-03-21T07:26:02;9.70;64.90
48589;DHT22;34369;51.174;6.738;2023-03-21T07:28:35;9.70;65.00
48589;DHT22;34369;51.174;6.738;2023-03-21T07:31:13;9.80;65.10
48589;DHT22;34369;51.174;6.738;2023-03-21T07:33:46;9.80;65.30
48589;DHT22;34369;51.174;6.738;2023-03-21T07:36:18;9.80;65.20
48589;DHT22;34369;51.174;6.738;2023-03-21T07:38:51;9.80;65.30
48589;DHT22;34369;51.174;6.738;2023-03-21T07:41:23;9.90;65.40
48589;DHT22;34369;51.174;6.738;2023-03-21T07:43:55;10.00;65.50
48589;DHT22;34369;51.174;6.738;2023-03-21T07:46:29;10.00;65.60
48589;DHT22;34369;51.174;6.738;2023-03-21T07:49:01;10.00;65.60
48589;DHT22;34369;51.174;6.738;2023-03-21T07:51:33;10.00;65.60
48589;DHT22;34369;51.174;6.738;2023-03-21T07:54:06;10.00;65.70
48589;DHT22;34369;51.174;6.738;2023-03-21T07:56:38;10.00;65.80
48589;DHT22;34369;51.174;6.738;2023-03-21T07:59:11;10.00;65.70
48589;DHT22;34369;51.174;6.738;2023-03-21T08:01:45;10.00;65.90
48589;DHT22;34369;51.174;6.738;2023-03-21T08:04:17;10.00;66.00
48589;DHT22;34369;51.174;6.738;2023-03-21T08:06:49;10.00;66.00
48589;DHT22;34369;51.174;6.738;2023-03-21T08:09:21;10.00;66.10
48589;DHT22;34369;51.174;6.738;2023-03-21T08:11:53;10.10;66.20
48589;DHT22;34369;51.174;6.738;2023-03-21T08:14:25;10.10;66.40
48589;DHT22;34369;51.174;6.738;2023-03-21T08:16:59;10.00;66.50
48589;DHT22;34369;51.174;6.738;2023-03-21T08:19:31;10.00;66.60
48589;DHT22;34369;51.174;6.738;2023-03-21T08:22:03;10.10;66.80
48589;DHT22;34369;51.174;6.738;2023-03-21T08:24:36;10.00;66.90
48589;DHT22;34369;51.174;6.738;2023-03-21T08:27:08;10.00;67.10
48589;DHT22;34369;51.174;6.738;2023-03-21T08:29:40;10.00;67.20
48589;DHT22;34369;51.174;6.738;2023-03-21T08:32:15;10.00;67.30
48589;DHT22;34369;51.174;6.738;2023-03-21T08:34:49;10.00;67.50
48589;DHT22;34369;51.174;6.738;2023-03-21T08:37:21;10.10;67.60
48589;DHT22;34369;51.174;6.738;2023-03-21T08:39:54;10.10;67.80
48589;DHT22;34369;51.174;6.738;2023-03-21T08:42:26;10.10;67.70
48589;DHT22;34369;51.174;6.738;2023-03-21T08:44:58;10.10;67.90
48589;DHT22;34369;51.174;6.738;2023-03-21T08:47:31;10.10;68.00
48589;DHT22;34369;51.174;6.738;2023-03-21T08:50:05;10.10;68.10
48589;DHT22;34369;51.174;6.738;2023-03-21T08:52:38;10.10;68.10
48589;DHT22;34369;51.174;6.738;2023-03-21T08:55:12;10.10;68.10
48589;DHT22;34369;51.174;6.738;2023-03-21T08:57:45;10.10;68.20
48589;DHT22;34369;51.174;6.738;2023-03-21T09:00:17;10.20;68.30
48589;DHT22;34369;51.174;6.738;2023-03-21T09:02:53;10.20;68.50
48589;DHT22;34369;51.174;6.738;2023-03-21T09:05:25;10.20;68.70
48589;DHT22;34369;51.174;6.738;2023-03-21T09:07:58;10.20;68.70
48589;DHT22;34369;51.174;6.738;2023-03-21T09:10:31;10.30;68.70
48589;DHT22;34369;51.174;6.738;2023-03-21T09:13:03;10.30;68.60
48589;DHT22;34369;51.174;6.738;2023-03-21T09:15:35;10.30;68.60
48589;DHT22;34369;51.174;6.738;2023-03-21T09:18:09;10.30;68.50
48589;DHT22;34369;51.174;6.738;2023-03-21T09:20:45;10.40;68.60
48589;DHT22;34369;51.174;6.738;2023-03-21T09:23:18;10.40;68.40
48589;DHT22;34369;51.174;6.738;2023-03-21T09:25:51;10.40;68.50
48589;DHT22;34369;51.174;6.738;2023-03-21T09:28:23;10.40;68.40
48589;DHT22;34369;51.174;6.738;2023-03-21T09:30:57;10.40;68.30
48589;DHT22;34369;51.174;6.738;2023-03-21T09:33:33;10.50;68.20
48589;DHT22;34369;51.174;6.738;2023-03-21T09:36:06;10.50;68.30
48589;DHT22;34369;51.174;6.738;2023-03-21T09:38:44;10.50;68.20
48589;DHT22;34369;51.174;6.738;2023-03-21T09:44:32;10.50;68.30
48589;DHT22;34369;51.174;6.738;2023-03-21T09:47:14;10.60;68.20
48589;DHT22;34369;51.174;6.738;2023-03-21T09:49:55;10.60;68.20
48589;DHT22;34369;51.174;6.738;2023-03-21T09:52:39;10.60;68.20
48589;DHT22;34369;51.174;6.738;2023-03-21T09:55:19;10.60;68.10
48589;DHT22;34369;51.174;6.738;2023-03-21T09:58:04;10.60;68.00
48589;DHT22;34369;51.174;6.738;2023-03-21T10:00:39;10.60;68.20
48589;DHT22;34369;51.174;6.738;2023-03-21T10:03:20;10.60;68.20
48589;DHT22;34369;51.174;6.738;2023-03-21T10:05:58;10.60;68.40
48589;DHT22;34369;51.174;6.738;2023-03-21T10:08:35;10.80;68.30
48589;DHT22;34369;51.174;6.738;2023-03-21T10:11:14;10.80;68.10
48589;DHT22;34369;51.174;6.738;2023-03-21T10:13:51;10.80;67.90
48589;DHT22;34369;51.174;6.738;2023-03-21T10:16:28;10.80;67.80
48589;DHT22;34369;51.174;6.738;2023-03-21T10:19:03;10.90;67.50
48589;DHT22;34369;51.174;6.738;2023-03-21T10:21:42;10.90;67.40
48589;DHT22;34369;51.174;6.738;2023-03-21T10:24:18;11.00;67.50
48589;DHT22;34369;51.174;6.738;2023-03-21T10:26:52;11.00;67.60
48589;DHT22;34369;51.174;6.738;2023-03-21T10:29:30;11.00;67.70
48589;DHT22;34369;51.174;6.738;2023-03-21T10:32:08;11.00;67.70
48589;DHT22;34369;51.174;6.738;2023-03-21T10:34:42;11.00;67.40
48589;DHT22;34369;51.174;6.738;2023-03-21T10:37:18;11.00;67.10
48589;DHT22;34369;51.174;6.738;2023-03-21T10:39:51;11.00;67.10
48589;DHT22;34369;51.174;6.738;2023-03-21T10:42:27;11.00;67.00
48589;DHT22;34369;51.174;6.738;2023-03-21T10:45:16;11.00;67.00
48589;DHT22;34369;51.174;6.738;2023-03-21T10:47:49;11.00;67.20
48589;DHT22;34369;51.174;6.738;2023-03-21T10:50:22;11.00;67.10
48589;DHT22;34369;51.174;6.738;2023-03-21T10:53:01;11.10;66.80
48589;DHT22;34369;51.174;6.738;2023-03-21T10:55:34;11.10;67.00
48589;DHT22;34369;51.174;6.738;2023-03-21T10:58:15;11.10;66.80
48589;DHT22;34369;51.174;6.738;2023-03-21T11:00:56;11.10;66.50
48589;DHT22;34369;51.174;6.738;2023-03-21T11:03:31;11.10;66.50
48589;DHT22;34369;51.174;6.738;2023-03-21T11:06:07;11.10;66.30
48589;DHT22;34369;51.174;6.738;2023-03-21T11:08:54;11.10;66.50
48589;DHT22;34369;51.174;6.738;2023-03-21T11:11:33;11.20;66.50
48589;DHT22;34369;51.174;6.738;2023-03-21T11:14:07;11.20;66.40
48589;DHT22;34369;51.174;6.738;2023-03-21T11:16:55;11.30;66.40
48589;DHT22;34369;51.174;6.738;2023-03-21T11:19:29;11.40;66.40
48589;DHT22;34369;51.174;6.738;2023-03-21T11:22:05;11.40;66.10
48589;DHT22;34369;51.174;6.738;2023-03-21T11:24:39;11.40;66.10
48589;DHT22;34369;51.174;6.738;2023-03-21T11:27:13;11.50;65.80
48589;DHT22;34369;51.174;6.738;2023-03-21T11:29:47;11.50;65.40
48589;DHT22;34369;51.174;6.738;2023-03-21T11:32:23;11.60;65.20
48589;DHT22;34369;51.174;6.738;2023-03-21T11:34:58;11.60;65.10
48589;DHT22;34369;51.174;6.738;2023-03-21T11:37:33;11.60;65.10
48589;DHT22;34369;51.174;6.738;2023-03-21T11:40:19;11.60;64.60
48589;DHT22;34369;51.174;6.738;2023-03-21T11:42:55;11.70;64.10
48589;DHT22;34369;51.174;6.738;2023-03-21T11:45:29;11.70;64.30
48589;DHT22;34369;51.174;6.738;2023-03-21T11:48:10;11.70;64.30
48589;DHT22;34369;51.174;6.738;2023-03-21T11:50:46;11.70;64.10
48589;DHT22;34369;51.174;6.738;2023-03-21T11:53:31;11.70;64.40
48589;DHT22;34369;51.174;6.738;2023-03-21T11:56:23;11.70;64.50
48589;DHT22;34369;51.174;6.738;2023-03-21T11:59:14;11.60;64.40
48589;DHT22;34369;51.174;6.738;2023-03-21T12:02:02;11.70;64.70
48589;DHT22;34369;51.174;6.738;2023-03-21T12:04:46;11.60;64.70
48589;DHT22;34369;51.174;6.738;2023-03-21T12:07:33;11.60;64.60
48589;DHT22;34369;51.174;6.738;2023-03-21T12:10:19;11.60;64.60
48589;DHT22;34369;51.174;6.738;2023-03-21T12:13:09;11.60;64.60
48589;DHT22;34369;51.174;6.738;2023-03-21T12:15:53;11.60;64.50
48589;DHT22;34369;51.174;6.738;2023-03-21T12:18:41;11.60;64.50
48589;DHT22;34369;51.174;6.738;2023-03-21T12:21:32;11.50;64.40
48589;DHT22;34369;51.174;6.738;2023-03-21T12:24:10;11.50;64.50
48589;DHT22;34369;51.174;6.738;2023-03-21T12:26:50;11.40;64.60
48589;DHT22;34369;51.174;6.738;2023-03-21T12:29:48;11.40;64.90
48589;DHT22;34369;51.174;6.738;2023-03-21T12:32:39;11.40;65.60
48589;DHT22;34369;51.174;6.738;2023-03-21T12:35:34;11.30;65.80
48589;DHT22;34369;51.174;6.738;2023-03-21T12:38:18;11.40;66.00
48589;DHT22;34369;51.174;6.738;2023-03-21T12:41:04;11.40;66.00
48589;DHT22;34369;51.174;6.738;2023-03-21T12:43:46;11.40;65.90
48589;DHT22;34369;51.174;6.738;2023-03-21T12:46:26;11.40;66.00
48589;DHT22;34369;51.174;6.738;2023-03-21T12:49:04;11.50;66.00
48589;DHT22;34369;51.174;6.738;2023-03-21T12:51:42;11.50;65.80
48589;DHT22;34369;51.174;6.738;2023-03-21T12:54:22;11.60;65.50
48589;DHT22;34369;51.174;6.738;2023-03-21T12:57:01;11.60;65.40
48589;DHT22;34369;51.174;6.738;2023-03-21T12:59:38;11.60;65.30
48589;DHT22;34369;51.174;6.738;2023-03-21T13:02:18;11.60;65.10
48589;DHT22;34369;51.174;6.738;2023-03-21T13:04:57;11.70;65.00
48589;DHT22;34369;51.174;6.738;2023-03-21T13:07:34;11.70;65.00
48589;DHT22;34369;51.174;6.738;2023-03-21T13:10:14;11.70;64.90
48589;DHT22;34369;51.174;6.738;2023-03-21T13:13:03;11.70;64.80
48589;DHT22;34369;51.174;6.738;2023-03-21T13:15:48;11.70;64.70
48589;DHT22;34369;51.174;6.738;2023-03-21T13:18:32;11.70;64.60
48589;DHT22;34369;51.174;6.738;2023-03-21T13:21:13;11.70;64.70
48589;DHT22;34369;51.174;6.738;2023-03-21T13:24:00;11.70;64.60
48589;DHT22;34369;51.174;6.738;2023-03-21T13:26:37;11.70;64.90
48589;DHT22;34369;51.174;6.738;2023-03-21T13:29:21;11.80;64.60
48589;DHT22;34369;51.174;6.738;2023-03-21T13:32:08;11.80;64.60
48589;DHT22;34369;51.174;6.738;2023-03-21T13:34:43;11.80;64.60
48589;DHT22;34369;51.174;6.738;2023-03-21T13:37:17;11.90;64.40
48589;DHT22;34369;51.174;6.738;2023-03-21T13:39:50;11.90;64.30
48589;DHT22;34369;51.174;6.738;2023-03-21T13:42:28;12.00;64.30
48589;DHT22;34369;51.174;6.738;2023-03-21T13:45:08;12.10;64.20
48589;DHT22;34369;51.174;6.738;2023-03-21T13:47:50;12.20;64.20
48589;DHT22;34369;51.174;6.738;2023-03-21T13:50:32;12.30;63.60
48589;DHT22;34369;51.174;6.738;2023-03-21T13:53:32;12.30;63.00
48589;DHT22;34369;51.174;6.738;2023-03-21T13:56:23;12.40;62.70
48589;DHT22;34369;51.174;6.738;2023-03-21T13:58:58;12.40;62.60
48589;DHT22;34369;51.174;6.738;2023-03-21T14:01:33;12.40;63.10
48589;DHT22;34369;51.174;6.738;2023-03-21T14:04:13;12.50;62.80
48589;DHT22;34369;51.174;6.738;2023-03-21T14:06:53;12.50;63.10
48589;DHT22;34369;51.174;6.738;2023-03-21T14:09:28;12.50;62.90
48589;DHT22;34369;51.174;6.738;2023-03-21T14:12:02;12.50;62.70
48589;DHT22;34369;51.174;6.738;2023-03-21T14:14:39;12.50;62.50
48589;DHT22;34369;51.174;6.738;2023-03-21T14:17:13;12.50;62.30
48589;DHT22;34369;51.174;6.738;2023-03-21T14:19:52;12.50;62.50
48589;DHT22;34369;51.174;6.738;2023-03-21T14:22:26;12.60;62.40
48589;DHT22;34369;51.174;6.738;2023-03-21T14:25:01;12.60;62.30
48589;DHT22;34369;51.174;6.738;2023-03-21T14:27:34;12.70;62.60
48589;DHT22;34369;51.174;6.738;2023-03-21T14:30:11;12.70;62.50
48589;DHT22;34369;51.174;6.738;2023-03-21T14:32:53;12.70;62.20
48589;DHT22;34369;51.174;6.738;2023-03-21T14:35:28;12.80;62.10
48589;DHT22;34369;51.174;6.738;2023-03-21T14:38:06;12.80;61.80
48589;DHT22;34369;51.174;6.738;2023-03-21T14:40:45;12.90;61.60
48589;DHT22;34369;51.174;6.738;2023-03-21T14:43:19;12.90;61.50
48589;DHT22;34369;51.174;6.738;2023-03-21T14:45:55;12.90;61.80
48589;DHT22;34369;51.174;6.738;2023-03-21T14:48:32;12.90;61.70
48589;DHT22;34369;51.174;6.738;2023-03-21T14:51:06;12.90;61.70
48589;DHT22;34369;51.174;6.738;2023-03-21T14:53:43;12.90;61.50
48589;DHT22;34369;51.174;6.738;2023-03-21T14:56:18;13.00;61.30
48589;DHT22;34369;51.174;6.738;2023-03-21T14:58:54;13.00;61.60
48589;DHT22;34369;51.174;6.738;2023-03-21T15:01:29;13.00;61.70
48589;DHT22;34369;51.174;6.738;2023-03-21T15:04:05;13.10;61.60
48589;DHT22;34369;51.174;6.738;2023-03-21T15:06:48;13.10;62.20
48589;DHT22;34369;51.174;6.738;2023-03-21T15:09:29;13.20;62.00
48589;DHT22;34369;51.174;6.738;2023-03-21T15:12:07;13.30;61.60
48589;DHT22;34369;51.174;6.738;2023-03-21T15:14:40;13.40;61.60
48589;DHT22;34369;51.174;6.738;2023-03-21T15:17:12;13.50;61.40
48589;DHT22;34369;51.174;6.738;2023-03-21T15:19:46;13.60;61.20
48589;DHT22;34369;51.174;6.738;2023-03-21T15:22:22;13.70;60.90
48589;DHT22;34369;51.174;6.738;2023-03-21T15:25:05;13.70;60.30
48589;DHT22;34369;51.174;6.738;2023-03-21T15:27:40;13.80;60.10
48589;DHT22;34369;51.174;6.738;2023-03-21T15:30:21;13.80;59.90
48589;DHT22;34369;51.174;6.738;2023-03-21T15:32:55;13.90;59.80
48589;DHT22;34369;51.174;6.738;2023-03-21T15:35:36;13.90;60.00
48589;DHT22;34369;51.174;6.738;2023-03-21T15:38:22;13.90;59.80
48589;DHT22;34369;51.174;6.738;2023-03-21T15:41:15;13.90;60.00
48589;DHT22;34369;51.174;6.738;2023-03-21T15:44:01;14.00;60.20
48589;DHT22;34369;51.174;6.738;2023-03-21T15:46:42;14.10;59.40
48589;DHT22;34369;51.174;6.738;2023-03-21T15:49:23;14.10;58.90
48589;DHT22;34369;51.174;6.738;2023-03-21T15:52:04;14.20;58.80
48589;DHT22;34369;51.174;6.738;2023-03-21T15:54:41;14.20;58.70
48589;DHT22;34369;51.174;6.738;2023-03-21T15:57:21;14.10;58.80
48589;DHT22;34369;51.174;6.738;2023-03-21T16:00:00;14.10;58.60
48589;DHT22;34369;51.174;6.738;2023-03-21T16:02:40;14.10;58.70
48589;DHT22;34369;51.174;6.738;2023-03-21T16:05:23;14.10;58.60
48589;DHT22;34369;51.174;6.738;2023-03-21T16:07:57;14.10;58.50
48589;DHT22;34369;51.174;6.738;2023-03-21T16:10:33;14.00;58.70
48589;DHT22;34369;51.174;6.738;2023-03-21T16:13:11;13.90;58.80
48589;DHT22;34369;51.174;6.738;2023-03-21T16:15:44;13.90;58.90
48589;DHT22;34369;51.174;6.738;2023-03-21T16:18:17;13.90;58.90
48589;DHT22;34369;51.174;6.738;2023-03-21T16:20:49;13.80;58.90
48589;DHT22;34369;51.174;6.738;2023-03-21T16:23:23;13.70;58.90
48589;DHT22;34369;51.174;6.738;2023-03-21T16:25:55;13.70;59.10
48589;DHT22;34369;51.174;6.738;2023-03-21T16:28:30;13.70;59.10
48589;DHT22;34369;51.174;6.738;2023-03-21T16:31:02;13.60;59.20
48589;DHT22;34369;51.174;6.738;2023-03-21T16:33:35;13.60;59.20
48589;DHT22;34369;51.174;6.738;2023-03-21T16:36:12;13.50;59.20
48589;DHT22;34369;51.174;6.738;2023-03-21T16:38:45;13.50;59.30